EFKU

Kuopio Airport

Kuopio / Siilinjärvi, Finland
METAR EFKU 231450Z AUTO 33011KT CAVOK 18/M01 Q1022
Observed Flight Rules
May-23 @ 14:50 UTC (16 minutes ago) Visual Flight Rules
Wind Visibility Clouds
330° at 11 knots 10,000+ meters
  • Clear skies
Temperatures Readings
Current 18°C / 64°F
Dewpoint -1°C / 30°F
Humidity 28%
Altimeter 30.18" Hg
Pressure 1022 hPa
Elevation 102
METAR EFKU 231450Z AUTO 33011KT CAVOK 18/M01 Q1022
Observed Flight Rules
May-23 @ 14:50 UTC
(16 minutes ago)
VFR
Wind Visibility
330° at 11 knots 10,000+ meters
Clouds
  • Clear skies
Temperature Dewpoint
18°C / 64°F -1°C / 30°F
Humidity Altimeter Pressure
28% 30.18" Hg 1022 hPa